createdAt,value
2019-03-01T00:03:38.523Z,7.87
2019-03-01T00:09:38.519Z,6.97
2019-03-01T00:15:10.177Z,8.10
2019-03-01T00:21:04.721Z,8.35
2019-03-01T00:26:46.236Z,7.20
2019-03-01T00:32:24.159Z,7.35
2019-03-01T00:38:10.242Z,7.15
2019-03-01T00:43:54.846Z,7.42
2019-03-01T00:48:59.253Z,7.12
2019-03-01T00:54:28.161Z,7.05
2019-03-01T00:59:32.405Z,7.50
2019-03-01T01:04:36.584Z,7.57
2019-03-01T01:09:48.624Z,7.17
2019-03-01T01:14:51.526Z,6.42
2019-03-01T01:19:55.893Z,6.87
2019-03-01T01:25:03.923Z,6.83
2019-03-01T01:30:10.725Z,6.20
2019-03-01T01:35:16.716Z,6.30
2019-03-01T01:40:21.447Z,6.10
2019-03-01T01:45:27.651Z,6.60
2019-03-01T01:50:36.984Z,5.42
2019-03-01T01:55:42.294Z,6.20
2019-03-01T02:00:47.121Z,5.80
2019-03-01T02:05:51.425Z,6.33
2019-03-01T02:10:55.703Z,5.90
2019-03-01T02:16:03.071Z,5.80
2019-03-01T02:21:07.338Z,6.30
2019-03-01T02:26:11.811Z,6.00
2019-03-01T02:31:45.854Z,5.90
2019-03-01T02:36:46.959Z,5.75
2019-03-01T02:41:57.873Z,6.40
2019-03-01T02:47:03.542Z,5.83
2019-03-01T02:52:08.652Z,6.58
2019-03-01T02:57:19.155Z,7.28
2019-03-01T03:02:23.829Z,7.78
2019-03-01T03:08:02.519Z,7.45
2019-03-01T03:13:09.230Z,7.83
2019-03-01T03:18:13.415Z,8.70
2019-03-01T03:23:21.052Z,8.50
2019-03-01T03:28:25.369Z,8.55
2019-03-01T03:33:29.957Z,8.30
2019-03-01T03:38:34.519Z,8.35
2019-03-01T03:43:39.148Z,8.43
2019-03-01T03:48:43.366Z,8.15
2019-03-01T03:53:47.887Z,9.20
2019-03-01T03:58:52.105Z,9.80
2019-03-01T04:03:56.880Z,9.57
2019-03-01T04:09:00.957Z,9.45
2019-03-01T04:14:05.245Z,10.00
2019-03-01T04:19:09.481Z,9.60
2019-03-01T04:24:13.851Z,9.60
2019-03-01T04:29:18.101Z,9.60
2019-03-01T04:34:22.307Z,10.60
2019-03-01T04:39:26.552Z,9.87
2019-03-01T04:44:30.745Z,9.60
2019-03-01T04:49:34.955Z,10.40
2019-03-01T04:54:39.860Z,10.45
2019-03-01T04:59:44.040Z,9.60
2019-03-01T05:04:48.234Z,10.13
2019-03-01T05:09:52.582Z,9.33
2019-03-01T05:14:56.919Z,9.50
2019-03-01T05:20:01.103Z,11.30
2019-03-01T05:25:05.459Z,10.78
2019-03-01T05:30:11.434Z,10.50
2019-03-01T05:35:15.817Z,10.75
2019-03-01T05:40:20.609Z,10.60
2019-03-01T05:45:25.063Z,11.78
2019-03-01T05:50:29.483Z,10.40
2019-03-01T05:55:35.554Z,10.50
2019-03-01T06:00:40.838Z,10.28
2019-03-01T06:05:45.694Z,9.57
2019-03-01T06:11:23.491Z,6.80
2019-03-01T06:17:04.769Z,7.70
2019-03-01T06:22:36.353Z,8.90
2019-03-01T06:28:17.161Z,9.03
2019-03-01T06:33:48.214Z,9.60
2019-03-01T06:39:48.201Z,9.50
2019-03-01T06:45:29.360Z,10.20
2019-03-01T06:50:37.712Z,10.40
2019-03-01T06:55:59.584Z,10.25
2019-03-01T07:01:16.456Z,9.70
2019-03-01T07:06:21.078Z,10.32
2019-03-01T07:11:25.627Z,9.83
2019-03-01T07:16:29.871Z,9.37
2019-03-01T07:21:35.219Z,8.28
2019-03-01T07:26:39.544Z,8.58
2019-03-01T07:31:43.789Z,9.50
2019-03-01T07:36:48.078Z,9.18
2019-03-01T07:41:52.180Z,8.53
2019-03-01T07:46:56.436Z,9.08
2019-03-01T07:52:01.729Z,9.40
2019-03-01T07:57:06.839Z,8.97
2019-03-01T08:02:11.038Z,8.50
2019-03-01T08:07:15.348Z,9.15
2019-03-01T08:12:20.895Z,8.40
2019-03-01T08:17:27.637Z,7.83
2019-03-01T08:22:31.286Z,8.30
2019-03-01T08:27:35.886Z,7.33
2019-03-01T08:32:40.260Z,7.75
2019-03-01T08:37:44.645Z,6.25
2019-03-01T08:43:51.953Z,7.20
2019-03-01T08:49:16.387Z,6.45
2019-03-01T08:54:27.638Z,6.30
2019-03-01T08:59:45.835Z,6.10
2019-03-01T09:05:43.409Z,5.45
2019-03-01T09:10:49.660Z,5.20
2019-03-01T09:16:07.243Z,4.73
2019-03-01T10:21:45.346Z,3.80
2019-03-01T10:53:24.283Z,3.10
